Time;durP1;ratioP1;P1;durP2;ratioP2;P2;SDS_P1;SDS_P2;PMS_P1;PMS_P2;Temp;Humidity;BMP_temperature;BMP_pressure;BME280_temperature;BME280_humidity;BME280_pressure;Samples;Min_cycle;Max_cycle;Signal;HPM_P1;HPM_P2
2023/12/24 00:00:00;;;;;;;6.15;1.98;;;11.10;99.90;;;;;;5033820;28;20478;-53
2023/12/24 00:02:26;;;;;;;3.13;1.05;;;11.20;99.90;;;;;;5034761;28;20033;-54
2023/12/24 00:04:51;;;;;;;4.07;0.93;;;11.10;99.90;;;;;;5034959;28;20036;-56
2023/12/24 00:07:17;;;;;;;9.90;1.30;;;11.10;99.90;;;;;;5034776;28;20508;-51
2023/12/24 00:09:43;;;;;;;5.07;0.88;;;11.10;99.90;;;;;;5033674;28;20051;-55
2023/12/24 00:12:09;;;;;;;6.55;1.20;;;11.10;99.90;;;;;;5034617;28;20029;-54
2023/12/24 00:14:37;;;;;;;9.05;1.17;;;11.10;99.90;;;;;;5032343;28;20049;-55
2023/12/24 00:17:03;;;;;;;6.85;1.83;;;11.10;99.90;;;;;;5026066;28;20026;-55
2023/12/24 00:19:28;;;;;;;9.23;1.13;;;11.00;99.90;;;;;;5015249;28;20081;-53
2023/12/24 00:21:54;;;;;;;14.02;2.25;;;11.10;99.90;;;;;;5029893;28;20029;-53
2023/12/24 00:24:20;;;;;;;11.38;1.48;;;11.10;99.90;;;;;;5034703;28;20032;-54
2023/12/24 00:26:46;;;;;;;8.20;1.48;;;11.10;99.90;;;;;;5034382;28;20039;-54
2023/12/24 00:29:11;;;;;;;6.70;1.50;;;11.10;99.90;;;;;;5034575;28;20041;-52
2023/12/24 00:31:37;;;;;;;1.92;0.80;;;11.10;99.90;;;;;;5034132;28;20385;-52
2023/12/24 00:34:03;;;;;;;3.45;0.93;;;11.10;99.90;;;;;;5034515;28;20032;-53
2023/12/24 00:36:28;;;;;;;3.75;0.73;;;11.10;99.90;;;;;;5034347;28;20068;-53
2023/12/24 00:38:54;;;;;;;4.53;1.17;;;11.10;99.90;;;;;;5035175;28;20057;-55
2023/12/24 00:41:20;;;;;;;5.30;0.82;;;11.10;99.90;;;;;;5034019;28;20123;-54
2023/12/24 00:43:45;;;;;;;7.72;1.27;;;11.10;99.90;;;;;;5036440;28;20441;-54
2023/12/24 00:46:15;;;;;;;3.30;0.90;;;11.20;99.90;;;;;;5023763;28;20438;-52
2023/12/24 00:48:41;;;;;;;3.67;0.80;;;11.20;99.90;;;;;;5025119;28;20026;-52
2023/12/24 00:51:06;;;;;;;2.83;0.80;;;11.20;99.90;;;;;;5034154;28;20074;-54
2023/12/24 00:53:32;;;;;;;6.28;0.93;;;11.20;99.90;;;;;;5034076;28;20029;-54
2023/12/24 00:55:58;;;;;;;4.22;0.75;;;11.00;99.90;;;;;;5034035;28;20040;-54
2023/12/24 00:58:26;;;;;;;3.88;1.02;;;10.90;99.90;;;;;;5033923;28;20498;-54
2023/12/24 01:00:51;;;;;;;5.00;0.50;;;10.90;99.90;;;;;;5033590;28;20056;-56
2023/12/24 01:03:17;;;;;;;5.28;0.90;;;10.80;99.90;;;;;;5033824;28;20423;-55
2023/12/24 01:05:42;;;;;;;9.45;1.25;;;10.80;99.90;;;;;;5033840;28;20100;-56
2023/12/24 01:08:08;;;;;;;11.68;0.95;;;10.70;99.90;;;;;;5033499;28;20032;-56
2023/12/24 01:10:34;;;;;;;4.45;0.80;;;10.60;99.90;;;;;;5029712;28;20029;-55
2023/12/24 01:12:59;;;;;;;4.57;1.13;;;10.60;99.90;;;;;;5044226;28;20030;-55
2023/12/24 01:15:25;;;;;;;4.32;1.02;;;10.50;99.90;;;;;;5033284;28;20068;-55
2023/12/24 01:17:51;;;;;;;7.70;1.38;;;10.50;99.90;;;;;;5033762;28;20017;-55
2023/12/24 01:20:17;;;;;;;8.27;1.70;;;10.50;99.90;;;;;;5033480;28;20032;-56
2023/12/24 01:22:43;;;;;;;7.97;1.05;;;10.40;99.90;;;;;;5032868;28;20510;-54
2023/12/24 01:25:09;;;;;;;6.65;1.23;;;10.40;99.90;;;;;;5033461;28;20032;-54
2023/12/24 01:27:36;;;;;;;9.73;1.25;;;10.40;99.90;;;;;;5032857;28;20517;-51
2023/12/24 01:30:05;;;;;;;8.48;1.48;;;10.40;99.90;;;;;;5033275;28;20131;-54
2023/12/24 01:32:31;;;;;;;7.78;1.50;;;10.30;99.90;;;;;;5032815;28;20033;-53
2023/12/24 01:34:58;;;;;;;13.52;2.20;;;10.30;99.90;;;;;;5033376;28;20058;-55
2023/12/24 01:37:24;;;;;;;6.70;1.10;;;10.30;99.90;;;;;;5034973;28;20371;-55
2023/12/24 01:39:49;;;;;;;15.05;2.38;;;10.30;99.90;;;;;;5033239;28;20036;-50
2023/12/24 01:42:15;;;;;;;10.55;1.60;;;10.20;99.90;;;;;;5047973;28;20453;-53
2023/12/24 01:44:41;;;;;;;15.25;1.73;;;10.20;99.90;;;;;;5033034;28;20496;-54
2023/12/24 01:47:07;;;;;;;5.80;1.30;;;10.20;99.90;;;;;;5032654;28;20025;-53
2023/12/24 01:49:34;;;;;;;13.30;2.78;;;10.20;99.90;;;;;;5032918;28;20036;-52
2023/12/24 01:52:00;;;;;;;10.18;1.92;;;10.20;99.90;;;;;;5032662;28;20494;-53
2023/12/24 01:54:26;;;;;;;11.60;1.23;;;10.10;99.90;;;;;;5033016;28;20036;-51
2023/12/24 01:56:52;;;;;;;9.98;2.28;;;10.20;99.90;;;;;;5033119;28;20081;-52
2023/12/24 01:59:19;;;;;;;10.23;1.67;;;10.20;99.90;;;;;;5032957;28;20021;-51
2023/12/24 02:01:46;;;;;;;8.65;1.65;;;10.20;99.90;;;;;;5032601;28;20545;-54
2023/12/24 02:04:12;;;;;;;11.07;1.58;;;10.20;99.90;;;;;;5032142;28;20386;-52
2023/12/24 02:06:39;;;;;;;6.88;1.63;;;10.20;99.90;;;;;;5031989;28;20022;-49
2023/12/24 02:09:05;;;;;;;5.72;1.90;;;10.30;99.90;;;;;;5044168;28;20488;-55
2023/12/24 02:11:31;;;;;;;10.10;1.35;;;10.30;99.90;;;;;;5051340;28;20039;-50
2023/12/24 02:13:57;;;;;;;7.43;1.33;;;10.20;99.90;;;;;;5051265;28;20045;-50
2023/12/24 02:16:24;;;;;;;9.77;1.27;;;10.20;99.90;;;;;;5042904;28;20029;-52
2023/12/24 02:18:50;;;;;;;7.88;1.52;;;10.30;99.90;;;;;;5032549;28;20048;-50
2023/12/24 02:21:16;;;;;;;5.32;0.85;;;10.30;99.90;;;;;;5032572;28;20501;-53
2023/12/24 02:23:42;;;;;;;15.45;1.98;;;10.30;99.90;;;;;;5032541;28;20030;-54
2023/12/24 02:26:29;;;;;;;10.77;1.80;;;10.30;99.90;;;;;;5032689;28;20018;-53
2023/12/24 02:29:01;;;;;;;11.97;1.13;;;10.40;99.90;;;;;;5032626;28;20535;-51
2023/12/24 02:31:31;;;;;;;8.95;1.20;;;10.40;99.90;;;;;;5032357;28;20813;-52
2023/12/24 02:33:58;;;;;;;12.90;2.20;;;10.40;99.90;;;;;;5032315;28;20025;-54
2023/12/24 02:36:25;;;;;;;11.93;1.13;;;10.40;99.90;;;;;;5032604;28;20041;-52
2023/12/24 02:38:51;;;;;;;9.57;1.85;;;10.40;99.90;;;;;;5033492;28;20111;-37
2023/12/24 02:41:17;;;;;;;12.15;1.35;;;10.40;99.90;;;;;;5036365;28;20081;-36
2023/12/24 02:43:42;;;;;;;11.23;1.58;;;10.40;99.90;;;;;;5036337;28;20035;-35
2023/12/24 02:46:08;;;;;;;8.77;1.83;;;10.40;99.90;;;;;;5036499;28;20061;-41
2023/12/24 02:48:33;;;;;;;4.45;1.23;;;10.40;99.90;;;;;;5036438;28;20055;-38
2023/12/24 02:50:59;;;;;;;3.28;0.73;;;10.40;99.90;;;;;;5035634;28;20025;-39
2023/12/24 02:53:25;;;;;;;3.15;1.13;;;10.40;99.90;;;;;;5036315;28;20116;-37
2023/12/24 02:55:51;;;;;;;6.35;1.35;;;10.50;99.90;;;;;;5068137;28;20421;-42
2023/12/24 02:58:16;;;;;;;12.23;1.98;;;10.40;99.90;;;;;;5035114;28;20511;-41
2023/12/24 03:00:42;;;;;;;8.60;1.02;;;10.50;99.90;;;;;;5035921;28;20108;-40
2023/12/24 03:03:07;;;;;;;4.28;0.93;;;10.50;99.90;;;;;;5036134;28;20021;-37
2023/12/24 03:05:33;;;;;;;1.85;1.02;;;10.50;99.90;;;;;;5036125;28;20029;-37
2023/12/24 03:07:59;;;;;;;8.65;1.20;;;10.50;99.90;;;;;;5039460;28;20469;-37
2023/12/24 03:10:24;;;;;;;4.85;0.80;;;10.50;99.90;;;;;;5039275;28;20017;-35
2023/12/24 03:12:55;;;;;;;5.07;0.90;;;10.50;99.90;;;;;;5035824;28;20025;-35
2023/12/24 03:15:21;;;;;;;1.85;0.45;;;10.50;99.90;;;;;;5035913;28;20515;-36
2023/12/24 03:17:47;;;;;;;1.98;0.60;;;10.50;99.90;;;;;;5035779;28;20026;-37
2023/12/24 03:20:15;;;;;;;3.45;0.50;;;10.50;99.90;;;;;;5035611;28;20022;-34
2023/12/24 03:22:41;;;;;;;4.32;0.60;;;10.60;99.90;;;;;;5035463;28;20486;-35
2023/12/24 03:25:07;;;;;;;0.50;0.30;;;10.50;99.90;;;;;;5035765;28;20105;-35
2023/12/24 03:27:32;;;;;;;7.40;0.68;;;10.50;99.90;;;;;;5035728;28;20112;-36
2023/12/24 03:29:58;;;;;;;3.45;0.30;;;10.50;99.90;;;;;;5033992;28;20100;-38
2023/12/24 03:32:24;;;;;;;5.85;0.68;;;10.50;99.90;;;;;;5035722;28;20108;-37
2023/12/24 03:34:49;;;;;;;0.75;0.32;;;10.50;99.90;;;;;;5031699;28;20433;-35
2023/12/24 03:37:15;;;;;;;0.77;0.38;;;10.50;99.90;;;;;;5035543;28;20513;-37
2023/12/24 03:39:40;;;;;;;6.15;1.85;;;10.50;99.90;;;;;;5035175;28;20032;-37
2023/12/24 03:42:06;;;;;;;0.28;0.20;;;10.50;99.90;;;;;;5035723;28;20108;-36
2023/12/24 03:44:32;;;;;;;0.90;0.65;;;10.50;99.90;;;;;;5035182;28;20466;-38
2023/12/24 03:46:58;;;;;;;1.95;0.82;;;10.50;99.90;;;;;;5035236;28;20037;-37
2023/12/24 03:49:23;;;;;;;1.85;0.22;;;10.60;99.90;;;;;;5035089;28;20075;-39
2023/12/24 03:51:49;;;;;;;0.30;0.30;;;10.60;99.90;;;;;;5034616;28;20438;-35
2023/12/24 03:54:15;;;;;;;4.63;0.65;;;10.60;99.90;;;;;;5034995;28;20041;-39
2023/12/24 03:56:41;;;;;;;3.50;0.45;;;10.60;99.90;;;;;;5035410;28;20390;-39
2023/12/24 03:59:06;;;;;;;8.25;0.80;;;10.60;99.90;;;;;;5034888;28;20482;-37
2023/12/24 04:01:32;;;;;;;6.47;0.52;;;10.60;99.90;;;;;;5033985;28;20033;-37
2023/12/24 04:03:58;;;;;;;0.32;0.32;;;10.70;99.90;;;;;;5034679;28;20116;-39
2023/12/24 04:06:23;;;;;;;2.25;0.57;;;10.70;99.90;;;;;;5034641;28;20029;-41
2023/12/24 04:08:49;;;;;;;3.10;0.40;;;10.60;99.90;;;;;;5045160;28;20490;-35
2023/12/24 04:11:16;;;;;;;1.35;0.63;;;10.60;99.90;;;;;;5054815;28;20029;-37
2023/12/24 04:13:43;;;;;;;3.70;0.70;;;10.60;99.90;;;;;;5043066;28;20522;-38
2023/12/24 04:16:09;;;;;;;0.73;0.40;;;10.60;99.90;;;;;;5034668;28;20478;-35
2023/12/24 04:18:34;;;;;;;5.45;0.93;;;10.60;99.90;;;;;;5034771;28;20546;-37
2023/12/24 04:21:00;;;;;;;5.68;1.05;;;10.70;99.90;;;;;;5034651;28;20104;-36
2023/12/24 04:23:26;;;;;;;2.35;1.23;;;10.60;99.90;;;;;;5033747;28;20104;-37
2023/12/24 04:25:52;;;;;;;2.33;0.77;;;10.60;99.90;;;;;;5033882;28;20033;-35
2023/12/24 04:28:17;;;;;;;3.63;0.40;;;10.60;99.90;;;;;;5033977;28;20490;-35
2023/12/24 04:30:43;;;;;;;1.10;0.93;;;10.60;99.90;;;;;;5034304;28;20448;-37
2023/12/24 04:33:09;;;;;;;0.85;0.63;;;10.70;99.90;;;;;;5034773;28;20025;-38
2023/12/24 04:35:35;;;;;;;2.03;0.60;;;10.70;99.90;;;;;;5033072;28;20029;-37
2023/12/24 04:38:00;;;;;;;3.45;1.30;;;10.70;99.90;;;;;;5034169;28;20056;-36
2023/12/24 04:40:26;;;;;;;4.93;0.68;;;10.70;99.90;;;;;;5034307;28;20036;-38
2023/12/24 04:42:52;;;;;;;3.45;0.82;;;10.70;99.90;;;;;;5033763;28;20022;-36
2023/12/24 04:45:17;;;;;;;2.40;0.65;;;10.70;99.90;;;;;;5034097;28;20043;-44
2023/12/24 04:47:43;;;;;;;5.80;1.58;;;10.70;99.90;;;;;;5034243;28;20033;-34
2023/12/24 04:50:08;;;;;;;3.85;0.70;;;10.70;99.90;;;;;;5034149;28;20108;-36
2023/12/24 04:52:37;;;;;;;7.53;0.93;;;10.70;99.90;;;;;;5034420;28;20036;-35
2023/12/24 04:55:04;;;;;;;6.90;1.67;;;10.70;99.90;;;;;;5033968;28;20317;-36
2023/12/24 04:57:30;;;;;;;3.40;0.77;;;10.80;99.90;;;;;;5033596;28;20035;-36
2023/12/24 04:59:56;;;;;;;4.70;1.27;;;10.80;99.90;;;;;;5033999;28;20029;-36
2023/12/24 05:02:22;;;;;;;1.83;0.90;;;10.70;99.90;;;;;;5032961;28;20117;-36
2023/12/24 05:04:49;;;;;;;7.78;0.90;;;10.80;99.90;;;;;;5033921;28;20100;-35
2023/12/24 05:07:14;;;;;;;11.73;1.00;;;10.80;99.90;;;;;;5033853;28;20535;-36
2023/12/24 05:09:41;;;;;;;6.78;0.82;;;10.80;99.90;;;;;;5033825;28;20025;-38
2023/12/24 05:12:07;;;;;;;6.43;1.00;;;10.80;99.90;;;;;;5033205;28;20108;-37
2023/12/24 05:14:34;;;;;;;3.80;0.98;;;10.80;99.90;;;;;;5033390;28;20552;-39
2023/12/24 05:16:59;;;;;;;5.30;1.13;;;10.80;99.90;;;;;;5033373;28;20501;-36
2023/12/24 05:19:25;;;;;;;9.48;1.40;;;10.80;99.90;;;;;;5033620;28;20300;-39
2023/12/24 05:21:51;;;;;;;4.03;1.52;;;10.90;99.90;;;;;;5033536;28;20021;-37
2023/12/24 05:24:16;;;;;;;10.18;1.08;;;10.90;99.90;;;;;;5033473;28;20087;-50
2023/12/24 05:26:42;;;;;;;5.60;1.30;;;10.90;99.90;;;;;;5033218;28;20394;-37
2023/12/24 05:29:08;;;;;;;7.22;1.90;;;10.90;99.90;;;;;;5031704;28;20425;-36
2023/12/24 05:31:41;;;;;;;6.53;2.05;;;10.90;99.90;;;;;;5033396;28;20029;-40
2023/12/24 05:34:08;;;;;;;4.53;1.70;;;10.90;99.90;;;;;;5033431;28;20486;-37
2023/12/24 05:36:39;;;;;;;14.02;2.47;;;10.90;99.90;;;;;;5033293;28;20033;-40
2023/12/24 05:39:11;;;;;;;11.10;2.15;;;11.00;99.90;;;;;;5033326;28;20034;-39
2023/12/24 05:41:36;;;;;;;4.50;1.40;;;10.90;99.90;;;;;;5033021;28;20064;-38
2023/12/24 05:44:02;;;;;;;4.55;1.08;;;10.90;99.90;;;;;;5031703;28;20059;-42
2023/12/24 05:46:28;;;;;;;6.70;1.98;;;10.90;99.90;;;;;;5033069;28;20033;-39
2023/12/24 05:48:53;;;;;;;11.75;2.08;;;10.90;99.90;;;;;;5033322;28;20389;-39
2023/12/24 05:51:19;;;;;;;10.75;2.35;;;11.00;99.90;;;;;;5033080;28;20025;-37
2023/12/24 05:53:45;;;;;;;9.20;1.40;;;10.90;99.90;;;;;;5033328;28;20033;-39
2023/12/24 05:56:10;;;;;;;6.57;1.60;;;10.90;99.90;;;;;;5032979;28;20108;-36
2023/12/24 05:58:36;;;;;;;10.05;2.08;;;10.90;99.90;;;;;;5032513;28;20083;-36
2023/12/24 06:01:02;;;;;;;9.27;1.67;;;10.90;99.90;;;;;;5032855;28;20032;-35
2023/12/24 06:03:27;;;;;;;20.88;2.08;;;10.90;99.90;;;;;;5033007;28;20123;-35
2023/12/24 06:05:53;;;;;;;14.70;1.95;;;11.00;99.90;;;;;;5032907;28;20026;-33
2023/12/24 06:08:19;;;;;;;9.55;1.60;;;11.00;99.90;;;;;;5032420;28;20028;-36
2023/12/24 06:10:45;;;;;;;16.35;2.03;;;11.10;99.90;;;;;;5032836;28;20474;-35
2023/12/24 06:13:11;;;;;;;7.05;1.77;;;11.10;99.90;;;;;;5032018;28;20025;-51
2023/12/24 06:15:37;;;;;;;15.38;2.60;;;11.10;99.90;;;;;;5032818;28;20498;-38
2023/12/24 06:18:05;;;;;;;16.48;1.45;;;11.00;99.90;;;;;;5032558;28;20056;-35
2023/12/24 06:20:32;;;;;;;3.33;1.70;;;11.00;99.90;;;;;;5032415;28;20494;-35
2023/12/24 06:22:58;;;;;;;8.32;2.08;;;11.10;99.90;;;;;;5032863;28;20064;-37
2023/12/24 06:25:25;;;;;;;12.57;2.05;;;11.10;99.90;;;;;;5031537;28;20029;-36
2023/12/24 06:27:51;;;;;;;14.40;2.42;;;11.10;99.90;;;;;;5032454;28;20021;-36
2023/12/24 06:30:16;;;;;;;11.90;1.48;;;11.10;99.90;;;;;;5064558;28;20033;-35
2023/12/24 06:32:43;;;;;;;8.38;1.85;;;11.10;99.90;;;;;;5032563;28;20029;-35
2023/12/24 06:35:10;;;;;;;5.32;1.73;;;11.10;99.90;;;;;;5032522;28;20026;-41
2023/12/24 06:37:35;;;;;;;23.30;3.42;;;11.20;99.90;;;;;;5032440;28;20478;-35
2023/12/24 06:40:02;;;;;;;15.35;2.08;;;11.20;99.90;;;;;;5032302;28;20033;-35
2023/12/24 06:42:27;;;;;;;17.40;2.42;;;11.20;99.90;;;;;;5032542;28;20053;-35
2023/12/24 06:44:53;;;;;;;15.88;2.67;;;11.20;99.90;;;;;;5032187;28;20017;-37
2023/12/24 06:47:18;;;;;;;10.23;1.98;;;11.20;99.90;;;;;;5032546;28;20057;-36
2023/12/24 06:49:44;;;;;;;16.65;2.45;;;11.20;99.90;;;;;;5032231;28;20021;-36
2023/12/24 06:52:13;;;;;;;28.30;4.03;;;11.20;99.90;;;;;;5032199;28;20386;-34
2023/12/24 06:54:39;;;;;;;12.88;2.67;;;11.20;99.90;;;;;;5022025;28;20580;-37
2023/12/24 06:57:08;;;;;;;17.75;1.80;;;11.30;99.90;;;;;;5032349;28;20026;-36
2023/12/24 06:59:34;;;;;;;24.80;2.42;;;11.30;99.90;;;;;;5031952;28;20497;-36
2023/12/24 07:02:01;;;;;;;22.02;2.47;;;11.30;99.90;;;;;;5032380;28;20021;-37
2023/12/24 07:04:27;;;;;;;15.65;2.42;;;11.30;99.90;;;;;;5031822;28;20478;-34
2023/12/24 07:06:52;;;;;;;21.13;3.33;;;11.30;99.90;;;;;;5032330;28;20033;-35
2023/12/24 07:09:18;;;;;;;15.10;2.22;;;11.30;99.90;;;;;;5034161;28;20057;-36
2023/12/24 07:11:44;;;;;;;28.42;3.25;;;11.30;99.90;;;;;;5032140;28;20087;-36
2023/12/24 07:14:10;;;;;;;20.88;2.90;;;11.40;99.90;;;;;;5032027;28;20042;-52
2023/12/24 07:16:36;;;;;;;15.95;2.90;;;11.30;99.90;;;;;;5030938;28;20025;-51
2023/12/24 07:19:05;;;;;;;14.00;2.22;;;11.40;99.90;;;;;;5032283;28;20393;-53
2023/12/24 07:21:31;;;;;;;20.17;3.08;;;11.40;99.90;;;;;;5032209;28;20025;-62
2023/12/24 07:23:56;;;;;;;11.90;2.33;;;11.40;99.90;;;;;;5031722;28;20497;-51
2023/12/24 07:26:22;;;;;;;12.75;2.63;;;11.50;99.90;;;;;;5033754;28;20029;-53
2023/12/24 07:28:48;;;;;;;15.23;2.40;;;11.50;99.90;;;;;;5035538;28;20033;-52
2023/12/24 07:31:16;;;;;;;26.55;2.60;;;11.50;99.90;;;;;;5035229;28;20119;-52
2023/12/24 07:33:42;;;;;;;20.40;3.88;;;11.50;99.90;;;;;;5035691;28;20398;-52
2023/12/24 07:36:08;;;;;;;9.05;2.28;;;11.50;99.90;;;;;;5035815;28;20030;-52
2023/12/24 07:38:34;;;;;;;16.83;3.00;;;11.50;99.90;;;;;;5034990;28;20029;-58
2023/12/24 07:41:00;;;;;;;11.73;2.35;;;11.50;99.90;;;;;;5034247;28;20509;-52
2023/12/24 07:43:27;;;;;;;9.88;2.38;;;11.60;99.90;;;;;;5035090;28;20030;-55
2023/12/24 07:45:52;;;;;;;15.48;2.67;;;11.60;99.90;;;;;;5035364;28;20021;-53
2023/12/24 07:48:18;;;;;;;11.45;2.17;;;11.70;99.90;;;;;;5034970;28;20393;-54
2023/12/24 07:50:44;;;;;;;15.50;2.83;;;11.60;99.90;;;;;;5035004;28;20021;-53
2023/12/24 07:53:10;;;;;;;24.33;3.90;;;11.70;99.90;;;;;;5035299;28;20021;-52
2023/12/24 07:55:35;;;;;;;6.72;1.88;;;11.60;99.90;;;;;;5035153;28;20096;-52
2023/12/24 08:00:45;;;;;;;29.33;2.70;;;11.70;99.90;;;;;;5034326;28;20465;-52
2023/12/24 08:03:11;;;;;;;10.30;1.92;;;11.70;99.90;;;;;;5035001;28;20021;-53
2023/12/24 08:05:36;;;;;;;11.43;2.20;;;11.80;99.90;;;;;;5035049;28;20017;-53
2023/12/24 08:08:02;;;;;;;19.13;2.20;;;11.70;99.90;;;;;;5038690;28;20390;-52
2023/12/24 08:10:28;;;;;;;18.02;2.45;;;11.70;99.90;;;;;;5038834;28;20028;-53
2023/12/24 08:12:56;;;;;;;8.35;1.90;;;11.70;99.90;;;;;;5034948;28;20059;-37
2023/12/24 08:15:22;;;;;;;7.38;1.70;;;11.80;99.90;;;;;;5034689;28;20064;-40
2023/12/24 08:17:48;;;;;;;5.50;1.88;;;11.80;99.90;;;;;;5034427;28;20386;-37
2023/12/24 08:20:14;;;;;;;14.35;2.13;;;11.80;99.90;;;;;;5034871;28;20536;-37
2023/12/24 08:22:40;;;;;;;8.60;1.90;;;11.80;99.90;;;;;;5014978;28;20026;-38
2023/12/24 08:25:07;;;;;;;7.35;1.38;;;11.90;99.90;;;;;;5018146;28;20118;-36
2023/12/24 08:27:33;;;;;;;8.63;1.95;;;11.90;99.90;;;;;;5034614;28;20025;-36
2023/12/24 08:29:59;;;;;;;2.85;1.08;;;11.80;99.90;;;;;;5034542;28;20501;-38
2023/12/24 08:32:25;;;;;;;11.20;1.83;;;11.90;99.90;;;;;;5034621;28;20048;-36
2023/12/24 08:34:50;;;;;;;2.65;1.65;;;11.80;99.90;;;;;;5033951;28;20017;-39
2023/12/24 08:37:16;;;;;;;7.72;1.75;;;11.80;99.90;;;;;;5034107;28;20474;-36
2023/12/24 08:39:41;;;;;;;5.00;2.22;;;11.80;99.90;;;;;;5034505;28;20052;-37
2023/12/24 08:42:07;;;;;;;9.90;2.03;;;11.70;99.90;;;;;;5034444;28;20025;-37
2023/12/24 08:44:35;;;;;;;10.55;1.90;;;11.70;99.90;;;;;;5034057;28;20068;-38
2023/12/24 08:47:01;;;;;;;13.75;1.88;;;11.70;99.90;;;;;;5034345;28;20048;-35
2023/12/24 08:49:26;;;;;;;8.70;1.60;;;11.80;99.90;;;;;;5034268;28;20021;-38
2023/12/24 08:51:52;;;;;;;14.23;3.30;;;11.80;99.90;;;;;;5034305;28;20060;-37
2023/12/24 08:54:18;;;;;;;10.52;2.45;;;11.90;99.90;;;;;;5047113;28;20034;-43
2023/12/24 08:56:43;;;;;;;6.70;2.15;;;11.90;99.90;;;;;;5034089;28;20030;-38
2023/12/24 08:59:09;;;;;;;9.40;2.13;;;11.90;99.90;;;;;;5034044;28;20024;-42
2023/12/24 09:01:40;;;;;;;12.73;2.28;;;11.90;99.90;;;;;;5034210;28;20045;-43
2023/12/24 09:04:06;;;;;;;12.30;2.53;;;12.00;99.90;;;;;;5034572;28;20492;-42
2023/12/24 09:06:31;;;;;;;11.65;2.60;;;11.90;99.90;;;;;;5032695;28;20026;-44
2023/12/24 09:08:57;;;;;;;16.65;3.70;;;12.00;99.90;;;;;;5037937;28;20100;-41
2023/12/24 09:11:23;;;;;;;12.50;2.55;;;11.90;99.90;;;;;;5018259;28;20384;-53
2023/12/24 09:13:48;;;;;;;17.70;3.00;;;11.90;99.90;;;;;;5013856;28;20046;-51
2023/12/24 09:16:14;;;;;;;14.38;2.28;;;11.90;99.90;;;;;;5032395;28;20100;-53
2023/12/24 09:18:39;;;;;;;6.15;2.10;;;11.90;99.90;;;;;;5033688;28;20071;-50
2023/12/24 09:21:05;;;;;;;17.48;1.98;;;11.80;99.90;;;;;;5033635;28;20033;-54
2023/12/24 09:23:31;;;;;;;7.63;2.08;;;11.90;99.90;;;;;;5032000;28;20022;-52
2023/12/24 09:25:56;;;;;;;17.52;2.50;;;11.90;99.90;;;;;;5033408;28;20440;-52
2023/12/24 09:28:22;;;;;;;18.88;2.40;;;12.00;99.90;;;;;;5033220;28;20386;-52
2023/12/24 09:30:48;;;;;;;15.90;2.30;;;11.90;99.90;;;;;;5033501;28;20013;-52
2023/12/24 09:33:14;;;;;;;8.15;3.15;;;12.00;99.90;;;;;;5031933;28;20053;-50
2023/12/24 09:35:42;;;;;;;15.45;2.92;;;12.00;99.90;;;;;;5033492;28;20363;-52
2023/12/24 09:38:07;;;;;;;17.30;2.97;;;11.90;99.90;;;;;;5031756;28;20029;-53
2023/12/24 09:40:33;;;;;;;16.25;3.47;;;12.00;99.90;;;;;;5033013;28;20087;-53
2023/12/24 09:43:00;;;;;;;16.90;3.08;;;11.90;99.90;;;;;;5032860;28;20056;-51
2023/12/24 09:45:26;;;;;;;17.45;3.53;;;12.00;99.90;;;;;;5033133;28;20101;-50
2023/12/24 09:47:52;;;;;;;19.95;3.55;;;12.10;99.90;;;;;;5032743;28;20040;-52
2023/12/24 09:50:17;;;;;;;20.27;3.00;;;12.10;99.90;;;;;;5032897;28;20506;-50
2023/12/24 09:52:45;;;;;;;25.33;3.30;;;12.00;99.90;;;;;;5032590;28;20025;-52
2023/12/24 09:55:10;;;;;;;30.48;4.13;;;12.10;99.90;;;;;;5032901;28;20079;-51
2023/12/24 09:57:38;;;;;;;19.05;2.88;;;12.10;99.90;;;;;;5032930;28;20116;-53
2023/12/24 10:00:08;;;;;;;32.50;3.80;;;12.10;99.90;;;;;;5032802;28;20057;-53
2023/12/24 10:02:34;;;;;;;22.92;3.72;;;12.10;99.90;;;;;;5032638;28;20506;-54
2023/12/24 10:05:00;;;;;;;26.98;3.80;;;12.10;99.90;;;;;;5032909;28;20028;-53
2023/12/24 10:07:39;;;;;;;14.27;3.85;;;12.20;99.90;;;;;;5032681;28;20474;-51
2023/12/24 10:10:07;;;;;;;19.30;3.05;;;12.10;99.90;;;;;;5031446;28;20118;-58
2023/12/24 10:12:33;;;;;;;31.25;3.72;;;12.20;99.90;;;;;;5032792;28;20537;-53
2023/12/24 10:14:58;;;;;;;23.80;4.18;;;12.20;99.90;;;;;;5032629;28;20038;-53
2023/12/24 10:17:32;;;;;;;23.92;3.33;;;12.20;99.90;;;;;;5032552;28;20025;-58
2023/12/24 10:19:59;;;;;;;30.85;3.50;;;12.20;99.90;;;;;;5032522;28;20538;-53
2023/12/24 10:22:25;;;;;;;21.92;4.35;;;12.30;99.90;;;;;;5032515;28;20482;-56
2023/12/24 10:25:02;;;;;;;38.28;4.00;;;12.30;99.90;;;;;;5032948;28;20489;-52
2023/12/24 10:27:29;;;;;;;24.17;3.05;;;12.30;99.90;;;;;;5032816;28;20469;-53
2023/12/24 10:30:10;;;;;;;23.25;3.10;;;12.40;99.90;;;;;;5015070;28;20125;-54
2023/12/24 10:32:36;;;;;;;17.33;3.22;;;12.40;99.90;;;;;;5018961;28;20028;-53
2023/12/24 10:35:02;;;;;;;16.67;2.80;;;12.50;99.90;;;;;;5031991;28;20029;-52
2023/12/24 10:37:29;;;;;;;23.27;3.10;;;12.50;99.90;;;;;;5032193;28;20022;-51
2023/12/24 10:40:08;;;;;;;22.65;3.00;;;12.50;99.90;;;;;;5032885;28;20539;-52
2023/12/24 10:42:38;;;;;;;14.02;2.67;;;12.50;99.90;;;;;;5032602;28;20017;-52
2023/12/24 10:45:08;;;;;;;15.75;2.95;;;12.40;99.90;;;;;;5032563;28;20124;-52
2023/12/24 10:47:35;;;;;;;18.00;3.03;;;12.50;99.90;;;;;;5031912;28;20033;-53
2023/12/24 10:50:03;;;;;;;24.27;3.67;;;12.50;99.90;;;;;;5032172;28;20033;-51
2023/12/24 10:52:29;;;;;;;32.53;3.92;;;12.50;99.90;;;;;;5032066;28;20489;-52
2023/12/24 10:54:58;;;;;;;24.92;3.00;;;12.50;99.90;;;;;;5032207;28;20025;-54
2023/12/24 10:57:29;;;;;;;23.70;3.08;;;12.50;99.90;;;;;;5031511;28;20116;-53
2023/12/24 11:00:06;;;;;;;22.98;3.50;;;12.40;99.90;;;;;;5032542;28;20367;-35
2023/12/24 11:02:36;;;;;;;12.80;1.83;;;12.40;99.90;;;;;;5036300;28;20433;-33
2023/12/24 11:05:02;;;;;;;12.82;2.30;;;12.40;99.90;;;;;;5035222;28;20027;-37
2023/12/24 11:07:34;;;;;;;15.75;1.83;;;12.40;99.90;;;;;;5035288;28;20397;-35
2023/12/24 11:10:05;;;;;;;10.75;1.98;;;12.40;99.90;;;;;;5036067;28;20470;-35
2023/12/24 11:12:35;;;;;;;9.90;1.92;;;12.40;99.90;;;;;;5035561;28;20033;-36
2023/12/24 11:15:02;;;;;;;11.30;2.38;;;12.40;99.90;;;;;;5035802;28;20559;-35
2023/12/24 11:17:37;;;;;;;22.45;2.35;;;12.40;99.90;;;;;;5035571;28;20057;-36
2023/12/24 11:20:18;;;;;;;8.25;1.67;;;12.40;99.90;;;;;;5035640;28;20041;-36
2023/12/24 11:23:14;;;;;;;12.02;2.13;;;12.40;99.90;;;;;;5035662;28;20022;-35
2023/12/24 11:25:41;;;;;;;11.23;2.00;;;12.40;99.90;;;;;;5030796;28;20042;-35
2023/12/24 11:28:23;;;;;;;13.52;1.70;;;12.30;99.90;;;;;;5036058;28;20025;-35
2023/12/24 11:30:51;;;;;;;5.07;1.60;;;12.40;99.90;;;;;;5035555;28;20040;-36
2023/12/24 11:33:29;;;;;;;12.77;2.53;;;12.40;99.90;;;;;;5035467;28;20382;-37
2023/12/24 11:35:56;;;;;;;;;;;12.30;99.90;;;;;;5036002;28;20034;-37
2023/12/24 11:38:34;;;;;;;4.73;1.13;;;12.40;99.90;;;;;;5035694;28;20007;-38
2023/12/24 11:41:10;;;;;;;8.40;1.27;;;12.30;99.90;;;;;;5035588;28;20026;-36
2023/12/24 11:43:37;;;;;;;16.15;1.77;;;12.30;99.90;;;;;;5034953;28;20486;-37
2023/12/24 11:46:09;;;;;;;12.23;2.30;;;12.40;99.90;;;;;;5035273;28;20029;-36
2023/12/24 11:48:36;;;;;;;6.95;1.45;;;12.40;99.90;;;;;;5035311;28;20567;-38
2023/12/24 11:51:02;;;;;;;14.15;2.35;;;12.40;99.90;;;;;;5035415;28;20482;-36
2023/12/24 11:53:32;;;;;;;13.95;2.42;;;12.40;99.90;;;;;;5035328;28;20412;-36
2023/12/24 11:56:11;;;;;;;10.02;1.95;;;12.40;99.90;;;;;;5028443;28;20028;-39
2023/12/24 11:58:38;;;;;;;15.48;3.03;;;12.40;99.90;;;;;;5033814;28;20033;-35
2023/12/24 12:01:04;;;;;;;18.07;3.03;;;12.40;99.90;;;;;;5035555;28;20475;-37
2023/12/24 12:03:31;;;;;;;17.58;3.28;;;12.40;99.90;;;;;;5034565;28;20764;-38
2023/12/24 12:05:57;;;;;;;11.05;2.35;;;12.40;99.90;;;;;;5034764;28;20175;-39
2023/12/24 12:08:23;;;;;;;14.18;2.53;;;12.50;99.90;;;;;;5041334;28;20047;-36
2023/12/24 12:10:49;;;;;;;16.15;2.90;;;12.50;99.90;;;;;;5054818;28;20107;-35
2023/12/24 12:13:15;;;;;;;13.65;2.45;;;12.50;99.90;;;;;;5040937;28;20025;-36
2023/12/24 12:15:40;;;;;;;13.95;2.85;;;12.50;99.90;;;;;;5034526;28;20543;-39
2023/12/24 12:18:06;;;;;;;15.57;2.88;;;12.50;99.90;;;;;;5034362;28;20088;-35
2023/12/24 12:20:32;;;;;;;22.90;3.30;;;12.50;99.90;;;;;;5034855;28;20453;-38
2023/12/24 12:22:58;;;;;;;17.55;3.65;;;12.50;99.90;;;;;;5034629;28;20030;-38
2023/12/24 12:25:24;;;;;;;17.20;2.50;;;12.60;99.90;;;;;;5034556;28;20494;-35
2023/12/24 12:27:49;;;;;;;11.88;3.15;;;12.60;99.90;;;;;;5034693;28;20018;-36
2023/12/24 12:30:15;;;;;;;22.95;3.50;;;12.60;99.90;;;;;;5034894;28;20025;-36
2023/12/24 12:32:41;;;;;;;16.00;2.78;;;12.60;99.90;;;;;;5032709;28;20051;-36
2023/12/24 12:35:07;;;;;;;23.42;2.47;;;12.60;99.90;;;;;;5033138;28;20371;-35
2023/12/24 12:37:33;;;;;;;14.85;3.55;;;12.60;99.90;;;;;;5034060;28;20025;-38
2023/12/24 12:39:59;;;;;;;19.08;3.08;;;12.60;99.90;;;;;;5033715;28;20024;-37
2023/12/24 12:42:24;;;;;;;21.23;2.47;;;12.60;99.90;;;;;;5033323;28;20024;-38